Time;durP1;ratioP1;P1;durP2;ratioP2;P2;SDS_P1;SDS_P2;PMS_P1;PMS_P2;Temp;Humidity;BMP_temperature;BMP_pressure;BME280_temperature;BME280_humidity;BME280_pressure;Samples;Min_cycle;Max_cycle;Signal;HPM_P1;HPM_P2
2023/08/30 00:00:37;;;;;;;5.90;4.40;;;;;;;30.83;36.79;99669.55;102799;1293;61527;-81
2023/08/30 00:03:04;;;;;;;5.80;4.90;;;;;;;30.83;36.83;99669.35;102758;1293;63008;-81
2023/08/30 00:05:29;;;;;;;6.40;4.70;;;;;;;30.83;36.81;99668.51;102829;1295;62325;-81
2023/08/30 00:07:55;;;;;;;6.70;4.80;;;;;;;30.83;36.86;99675.30;102859;1293;61357;-81
2023/08/30 00:10:21;;;;;;;5.10;4.30;;;;;;;30.82;36.94;99676.55;102962;1296;66736;-81
2023/08/30 00:12:46;;;;;;;6.60;4.60;;;;;;;30.82;36.88;99681.29;102751;1290;61467;-81
2023/08/30 00:15:12;;;;;;;6.20;4.40;;;;;;;30.82;36.87;99679.10;102775;1291;61379;-81
2023/08/30 00:17:37;;;;;;;6.30;5.00;;;;;;;30.82;36.90;99679.16;102780;1293;62080;-84
2023/08/30 00:20:03;;;;;;;5.70;4.70;;;;;;;30.82;36.91;99679.32;102764;1297;61584;-83
2023/08/30 00:22:29;;;;;;;5.90;4.70;;;;;;;30.82;36.96;99677.89;102846;1296;66631;-81
2023/08/30 00:24:54;;;;;;;6.20;4.50;;;;;;;30.82;37.03;99676.34;102782;1291;61323;-81
2023/08/30 00:27:21;;;;;;;5.80;4.70;;;;;;;30.81;36.96;99678.05;102872;1294;62093;-82
2023/08/30 00:29:47;;;;;;;6.00;4.70;;;;;;;30.81;37.00;99681.45;102924;1291;61389;-82
2023/08/30 00:32:13;;;;;;;7.10;5.00;;;;;;;30.81;36.97;99687.02;102786;1291;61375;-82
2023/08/30 00:34:38;;;;;;;5.10;4.30;;;;;;;30.81;37.08;99689.83;102765;1295;61469;-82
2023/08/30 00:37:04;;;;;;;6.50;4.80;;;;;;;30.81;37.07;99690.88;102819;1291;61498;-82
2023/08/30 00:39:29;;;;;;;6.00;4.80;;;;;;;30.81;37.00;99695.99;102885;1291;61287;-81
2023/08/30 00:41:56;;;;;;;5.20;4.40;;;;;;;30.81;36.92;99695.13;102820;1294;61414;-81
2023/08/30 00:44:21;;;;;;;5.80;4.40;;;;;;;30.81;36.88;99695.86;102827;1290;61386;-82
2023/08/30 00:46:47;;;;;;;5.50;4.60;;;;;;;30.80;36.98;99702.98;102965;1293;62340;-81
2023/08/30 00:49:13;;;;;;;6.80;4.70;;;;;;;30.80;36.99;99730.10;102804;1293;61394;-82
2023/08/30 00:51:39;;;;;;;5.70;4.60;;;;;;;30.81;36.95;99710.58;102793;1290;61393;-82
2023/08/30 00:54:05;;;;;;;6.40;4.50;;;;;;;30.81;37.00;99694.23;102829;1293;63032;-82
2023/08/30 00:56:31;;;;;;;4.90;4.30;;;;;;;30.80;37.03;99697.91;102845;1291;65576;-83
2023/08/30 00:58:56;;;;;;;6.50;4.90;;;;;;;30.80;37.01;99706.46;102816;1293;62385;-82
2023/08/30 01:01:22;;;;;;;5.90;4.80;;;;;;;30.80;37.01;99726.63;102757;1294;61388;-82
2023/08/30 01:03:49;;;;;;;6.00;4.60;;;;;;;30.80;37.07;99721.52;102841;1296;62482;-82
2023/08/30 01:06:14;;;;;;;6.70;4.80;;;;;;;30.80;36.98;99719.17;102700;1296;61364;-82
2023/08/30 01:08:41;;;;;;;5.00;4.00;;;;;;;30.80;37.07;99699.80;102771;1291;61415;-82
2023/08/30 01:11:24;;;;;;;5.80;4.50;;;;;;;30.79;37.08;99699.66;102800;1290;61822;-82
2023/08/30 01:14:09;;;;;;;6.60;4.60;;;;;;;30.79;37.11;99706.96;102764;1291;63859;-81
2023/08/30 01:16:37;;;;;;;5.40;4.10;;;;;;;30.78;37.15;99714.13;102819;1293;65952;-82
2023/08/30 01:19:31;;;;;;;5.60;4.60;;;;;;;30.79;37.14;99711.48;103276;1293;61382;-82
2023/08/30 01:22:29;;;;;;;6.20;4.80;;;;;;;30.78;37.16;99724.52;102550;1291;61302;-82
2023/08/30 01:25:33;;;;;;;5.40;4.30;;;;;;;30.78;37.08;99721.29;102139;1299;63889;-82
2023/08/30 01:28:01;;;;;;;5.00;4.10;;;;;;;30.77;37.12;99726.98;102194;1300;65972;-81
2023/08/30 01:30:27;;;;;;;7.10;4.70;;;;;;;30.78;37.13;99726.20;102129;1302;61368;-81
2023/08/30 01:32:52;;;;;;;6.10;4.30;;;;;;;30.79;37.10;99721.58;102205;1302;62185;-81
2023/08/30 01:35:19;;;;;;;6.30;4.70;;;;;;;30.79;37.08;99726.02;102201;1302;62134;-81
2023/08/30 01:37:46;;;;;;;5.70;4.40;;;;;;;30.78;37.12;99720.41;102111;1305;61502;-81
2023/08/30 01:40:11;;;;;;;5.00;4.50;;;;;;;30.78;37.21;99718.15;102297;1302;62607;-81
2023/08/30 01:42:37;;;;;;;6.00;4.60;;;;;;;30.78;37.19;99707.84;102182;1302;61688;-82
2023/08/30 01:45:03;;;;;;;5.40;4.50;;;;;;;30.78;37.10;99703.81;102214;1304;61514;-81
2023/08/30 01:47:28;;;;;;;5.70;4.40;;;;;;;30.77;37.09;99712.98;102274;1299;61758;-81
2023/08/30 01:49:54;;;;;;;6.00;4.10;;;;;;;30.78;37.16;99727.41;102143;1299;65729;-82
2023/08/30 01:52:20;;;;;;;5.50;4.60;;;;;;;30.78;37.08;99715.67;102176;1302;61731;-81
2023/08/30 01:54:45;;;;;;;6.30;4.40;;;;;;;30.78;37.14;99704.77;102221;1299;61496;-81
2023/08/30 01:57:11;;;;;;;6.60;4.30;;;;;;;30.77;37.13;99699.75;102149;1300;61342;-81
2023/08/30 01:59:37;;;;;;;5.30;4.30;;;;;;;30.77;37.14;99701.92;102378;1304;61556;-81
2023/08/30 02:02:04;;;;;;;5.80;4.60;;;;;;;30.78;37.22;99706.95;102558;1296;61761;-81
2023/08/30 02:04:31;;;;;;;4.90;4.20;;;;;;;30.77;37.18;99704.14;102766;1293;61309;-82
2023/08/30 02:07:03;;;;;;;6.10;4.60;;;;;;;30.77;37.11;99698.48;102823;1294;61299;-81
2023/08/30 02:09:40;;;;;;;5.60;4.30;;;;;;;30.76;37.16;99692.03;102865;1293;64054;-81
2023/08/30 02:12:08;;;;;;;5.50;4.40;;;;;;;30.76;37.12;99682.46;102760;1293;65956;-81
2023/08/30 02:14:34;;;;;;;5.70;4.50;;;;;;;30.76;37.13;99684.39;102869;1293;61902;-82
2023/08/30 02:17:01;;;;;;;6.60;4.30;;;;;;;30.76;37.10;99688.45;102941;1293;61448;-82
2023/08/30 02:19:26;;;;;;;5.90;4.50;;;;;;;30.76;37.13;99691.23;102732;1298;61521;-82
2023/08/30 02:21:52;;;;;;;5.20;4.20;;;;;;;30.76;37.25;99695.00;102788;1295;61874;-82
2023/08/30 02:24:18;;;;;;;5.30;4.20;;;;;;;30.76;37.26;99689.60;102820;1292;61431;-82
2023/08/30 02:26:43;;;;;;;5.50;4.40;;;;;;;30.76;37.10;99687.55;102719;1296;61747;-82
2023/08/30 02:29:09;;;;;;;6.90;4.50;;;;;;;30.75;37.15;99680.88;102848;1293;61406;-82
2023/08/30 02:31:37;;;;;;;4.70;4.20;;;;;;;30.75;37.12;99679.27;103011;1295;63591;-82
2023/08/30 02:34:02;;;;;;;5.80;4.30;;;;;;;30.75;37.12;99680.75;102874;1290;65662;-81
2023/08/30 02:36:28;;;;;;;7.70;4.80;;;;;;;30.75;37.13;99685.83;102726;1296;61507;-82
2023/08/30 02:38:53;;;;;;;6.00;4.70;;;;;;;30.75;37.16;99681.85;102861;1297;61304;-82
2023/08/30 02:41:19;;;;;;;5.70;4.40;;;;;;;30.74;37.18;99674.83;102876;1293;61329;-82
2023/08/30 02:43:44;;;;;;;6.20;4.20;;;;;;;30.75;37.22;99674.42;102793;1297;62222;-82
2023/08/30 02:46:10;;;;;;;5.10;4.10;;;;;;;30.75;37.15;99671.53;102752;1296;66068;-82
2023/08/30 02:48:36;;;;;;;5.90;4.40;;;;;;;30.75;37.27;99665.58;102940;1294;61308;-82
2023/08/30 02:51:02;;;;;;;6.80;4.60;;;;;;;30.74;37.24;99664.48;103053;1296;61725;-82
2023/08/30 02:53:29;;;;;;;6.30;4.30;;;;;;;30.75;37.16;99664.83;102734;1297;61502;-82
2023/08/30 02:55:55;;;;;;;5.80;4.30;;;;;;;30.74;37.04;99669.05;102756;1297;62513;-82
2023/08/30 02:58:22;;;;;;;6.10;4.10;;;;;;;30.74;37.16;99672.15;102847;1298;62571;-81
2023/08/30 03:00:48;;;;;;;6.20;4.40;;;;;;;30.74;37.26;99676.71;102823;1291;62336;-83
2023/08/30 03:03:13;;;;;;;5.90;4.50;;;;;;;30.74;37.17;99680.13;102818;1295;61453;-83
2023/08/30 03:05:40;;;;;;;5.50;4.30;;;;;;;30.73;37.18;99682.63;102936;1293;61437;-83
2023/08/30 03:08:06;;;;;;;5.40;4.30;;;;;;;30.74;37.19;99684.55;102805;1296;61742;-83
2023/08/30 03:10:32;;;;;;;5.90;4.50;;;;;;;30.74;37.14;99683.08;102842;1290;61397;-83
2023/08/30 03:12:58;;;;;;;7.10;4.60;;;;;;;30.74;37.17;99685.98;102830;1292;61394;-83
2023/08/30 03:15:24;;;;;;;6.00;4.00;;;;;;;30.74;37.24;99687.65;102836;1294;63840;-83
2023/08/30 03:17:49;;;;;;;5.70;4.30;;;;;;;30.73;37.25;99692.56;102749;1295;61384;-83
2023/08/30 03:20:15;;;;;;;6.70;4.60;;;;;;;30.73;37.28;99695.49;103095;1289;62310;-81
2023/08/30 03:22:41;;;;;;;5.20;3.90;;;;;;;30.73;37.28;99697.55;102867;1296;61603;-80
2023/08/30 03:25:09;;;;;;;6.80;4.30;;;;;;;30.73;37.28;99698.31;102693;1293;62070;-80
2023/08/30 03:27:35;;;;;;;5.10;4.10;;;;;;;30.73;37.33;99700.13;102790;1293;62043;-81
2023/08/30 03:30:02;;;;;;;4.80;4.10;;;;;;;30.72;37.22;99702.90;102723;1291;61411;-83
2023/08/30 03:32:29;;;;;;;5.60;4.30;;;;;;;30.73;37.12;99704.87;102842;1292;61496;-81
2023/08/30 03:34:55;;;;;;;5.60;4.50;;;;;;;30.73;37.21;99709.39;102869;1289;61649;-81
2023/08/30 03:37:20;;;;;;;5.40;4.50;;;;;;;30.73;37.20;99711.90;102812;1290;61360;-82
2023/08/30 03:39:46;;;;;;;6.80;4.20;;;;;;;30.72;37.18;99709.60;102732;1298;61806;-82
2023/08/30 03:42:11;;;;;;;5.00;4.10;;;;;;;30.73;37.19;99709.17;102795;1289;61447;-82
2023/08/30 03:44:37;;;;;;;5.70;4.40;;;;;;;30.73;37.13;99706.83;102771;1294;61406;-81
2023/08/30 03:47:03;;;;;;;6.60;4.30;;;;;;;30.72;37.15;99713.45;102752;1297;61773;-82
2023/08/30 03:49:29;;;;;;;5.90;4.60;;;;;;;30.72;37.19;99714.55;102807;1289;62261;-81
2023/08/30 03:51:55;;;;;;;6.00;4.50;;;;;;;30.72;37.23;99717.06;102717;1296;61418;-81
2023/08/30 03:54:20;;;;;;;7.60;4.80;;;;;;;30.72;37.28;99714.96;102880;1293;61431;-81
2023/08/30 03:56:47;;;;;;;5.90;4.20;;;;;;;30.72;37.31;99714.05;102810;1295;61907;-81
2023/08/30 03:59:13;;;;;;;6.70;4.80;;;;;;;30.72;37.33;99714.91;102810;1290;61887;-82
2023/08/30 04:01:38;;;;;;;5.20;4.50;;;;;;;30.73;37.14;99715.21;102874;1294;62176;-81
2023/08/30 04:04:05;;;;;;;6.00;4.40;;;;;;;30.72;37.20;99715.52;102732;1292;61516;-81
2023/08/30 04:06:30;;;;;;;6.10;4.40;;;;;;;30.72;37.28;99715.88;102781;1294;61389;-81
2023/08/30 04:08:56;;;;;;;7.00;4.20;;;;;;;30.72;37.19;99718.05;103096;1297;62566;-81
2023/08/30 04:11:22;;;;;;;6.20;4.80;;;;;;;30.72;37.14;99721.17;102864;1290;61886;-81
2023/08/30 04:13:49;;;;;;;5.90;4.40;;;;;;;30.71;37.25;99726.19;102708;1298;61332;-81
2023/08/30 04:16:14;;;;;;;7.70;4.20;;;;;;;30.70;37.00;99724.26;102787;1290;62580;-82
2023/08/30 04:18:40;;;;;;;5.30;4.20;;;;;;;30.69;36.91;99725.27;102745;1293;61431;-81
2023/08/30 04:21:07;;;;;;;7.70;4.60;;;;;;;30.69;36.93;99726.39;102781;1293;61393;-82
2023/08/30 04:23:33;;;;;;;7.90;4.80;;;;;;;30.68;36.92;99731.37;102705;1289;65682;-82
2023/08/30 04:25:58;;;;;;;7.00;5.10;;;;;;;30.68;36.86;99729.27;102818;1303;61701;-81
2023/08/30 04:28:26;;;;;;;9.20;4.60;;;;;;;30.68;36.82;99724.78;102882;1293;61384;-82
2023/08/30 04:30:55;;;;;;;11.00;4.70;;;;;;;30.67;36.68;99724.86;102786;1293;61395;-81
2023/08/30 04:33:21;;;;;;;;;;;;;;;30.67;36.64;99730.86;102919;1291;65811;-81
2023/08/30 04:35:51;;;;;;;7.90;4.90;;;;;;;30.65;36.69;99734.02;102728;1290;61414;-82
2023/08/30 04:38:16;;;;;;;10.10;4.90;;;;;;;30.65;36.58;99730.16;102769;1291;62298;-81
2023/08/30 04:40:42;;;;;;;9.30;5.20;;;;;;;30.65;36.54;99734.53;102681;1296;61438;-81
2023/08/30 04:43:08;;;;;;;7.50;4.70;;;;;;;30.65;36.54;99735.71;103029;1291;61457;-82
2023/08/30 04:45:35;;;;;;;6.10;4.50;;;;;;;30.65;36.63;99738.09;102716;1292;61434;-81
2023/08/30 04:48:00;;;;;;;12.20;5.30;;;;;;;30.65;36.67;99743.89;102739;1293;62443;-82
2023/08/30 04:50:26;;;;;;;7.10;5.00;;;;;;;30.65;36.40;99743.64;102794;1292;62297;-82
2023/08/30 04:52:51;;;;;;;8.20;4.90;;;;;;;30.65;36.39;99739.80;102806;1296;61925;-82
2023/08/30 04:55:17;;;;;;;14.50;5.50;;;;;;;30.65;36.48;99735.80;102780;1296;61398;-81
2023/08/30 04:57:44;;;;;;;13.10;5.60;;;;;;;30.65;36.42;99737.13;102673;1293;61441;-81
2023/08/30 05:00:12;;;;;;;9.30;4.90;;;;;;;30.64;36.29;99738.27;102999;1291;61291;-83
2023/08/30 05:02:38;;;;;;;7.40;4.90;;;;;;;30.65;36.24;99742.08;103176;1293;63700;-83
2023/08/30 05:05:04;;;;;;;11.20;5.20;;;;;;;30.64;36.10;99740.14;102749;1296;61498;-82
2023/08/30 05:07:30;;;;;;;8.70;5.10;;;;;;;30.63;36.19;99742.40;102908;1290;62001;-83
2023/08/30 05:09:55;;;;;;;18.80;6.00;;;;;;;30.63;36.05;99739.46;103044;1291;61927;-83
2023/08/30 05:12:22;;;;;;;10.00;4.90;;;;;;;30.61;35.99;99742.52;103106;1293;61369;-82
2023/08/30 05:14:47;;;;;;;10.30;5.60;;;;;;;30.60;35.81;99740.10;103036;1290;61388;-82
2023/08/30 05:17:13;;;;;;;14.00;5.20;;;;;;;30.59;35.81;99736.92;102880;1291;61399;-82
2023/08/30 05:19:39;;;;;;;13.50;5.40;;;;;;;30.59;35.82;99733.33;102713;1291;61321;-82
2023/08/30 05:22:04;;;;;;;13.30;5.50;;;;;;;30.58;35.73;99734.48;102817;1290;61404;-82
2023/08/30 05:24:30;;;;;;;11.00;5.60;;;;;;;30.57;35.77;99739.30;102783;1293;61399;-82
2023/08/30 05:26:55;;;;;;;10.10;5.20;;;;;;;30.57;35.73;99740.30;102787;1294;62043;-82
2023/08/30 05:29:21;;;;;;;8.90;5.20;;;;;;;30.57;35.72;99741.17;102865;1293;61365;-82
2023/08/30 05:31:46;;;;;;;12.60;5.80;;;;;;;30.56;35.78;99744.58;102778;1296;61345;-82
2023/08/30 05:34:12;;;;;;;10.50;5.40;;;;;;;30.56;35.78;99748.34;102858;1296;62576;-82
2023/08/30 05:36:38;;;;;;;10.50;5.90;;;;;;;30.56;35.64;99749.64;102822;1291;61996;-82
2023/08/30 05:39:04;;;;;;;8.90;5.40;;;;;;;30.57;35.55;99749.32;102802;1293;61916;-83
2023/08/30 05:41:30;;;;;;;11.40;5.90;;;;;;;30.58;35.73;99752.71;103079;1289;61486;-83
2023/08/30 05:43:56;;;;;;;12.30;6.20;;;;;;;30.58;35.74;99754.89;102923;1291;61374;-83
2023/08/30 05:46:21;;;;;;;9.60;5.90;;;;;;;30.59;35.59;99759.48;102965;1291;61583;-82
2023/08/30 05:48:47;;;;;;;8.50;6.00;;;;;;;30.59;35.58;99765.08;103099;1293;62866;-83
2023/08/30 05:51:12;;;;;;;11.30;5.90;;;;;;;30.60;35.57;99768.77;103102;1291;62445;-83
2023/08/30 05:53:38;;;;;;;13.90;6.30;;;;;;;30.60;35.63;99772.04;103288;1289;61458;-83
2023/08/30 05:56:04;;;;;;;10.90;6.10;;;;;;;30.61;35.56;99779.01;103301;1291;62383;-83
2023/08/30 05:58:29;;;;;;;9.80;5.80;;;;;;;30.62;35.49;99784.00;103068;1293;61476;-83
2023/08/30 06:00:56;;;;;;;10.50;5.30;;;;;;;30.63;35.42;99790.38;102942;1291;63823;-83
2023/08/30 06:03:22;;;;;;;10.70;5.60;;;;;;;30.64;35.47;99794.48;102722;1293;65165;-82
2023/08/30 06:05:51;;;;;;;12.00;5.70;;;;;;;30.64;35.40;99798.59;103091;1291;61382;-82
2023/08/30 06:08:34;;;;;;;13.60;5.80;;;;;;;30.65;35.35;99801.06;103130;1293;61437;-83
2023/08/30 06:10:59;;;;;;;11.80;5.40;;;;;;;30.65;35.49;99805.70;102951;1293;61431;-83
2023/08/30 06:13:25;;;;;;;13.90;5.90;;;;;;;30.66;35.41;99806.38;102870;1297;61780;-83
2023/08/30 06:15:51;;;;;;;10.80;5.80;;;;;;;30.66;35.39;99804.35;102813;1290;61496;-82
2023/08/30 06:18:18;;;;;;;12.70;5.80;;;;;;;30.65;35.40;99806.44;102865;1291;62670;-82
2023/08/30 06:20:44;;;;;;;13.80;6.10;;;;;;;30.66;35.46;99805.14;102922;1296;61393;-82
2023/08/30 06:23:10;;;;;;;13.90;6.10;;;;;;;30.66;35.49;99804.77;102953;1296;61403;-82
2023/08/30 06:25:35;;;;;;;12.30;6.00;;;;;;;30.66;35.38;99806.33;103004;1290;65812;-82
2023/08/30 06:28:02;;;;;;;12.00;5.90;;;;;;;30.66;35.42;99806.33;103027;1290;61468;-81
2023/08/30 06:30:29;;;;;;;12.20;5.70;;;;;;;30.66;35.36;99808.50;102985;1291;62561;-81
2023/08/30 06:32:55;;;;;;;13.90;5.80;;;;;;;30.67;35.28;99811.65;103957;1289;61317;-80
2023/08/30 06:35:21;;;;;;;13.90;5.60;;;;;;;30.68;35.47;99818.02;103179;1290;61412;-83
2023/08/30 06:37:47;;;;;;;11.30;5.50;;;;;;;30.69;35.41;99821.52;102901;1296;61536;-80
2023/08/30 06:40:12;;;;;;;11.40;5.80;;;;;;;30.70;35.38;99824.89;103312;1290;61471;-81
2023/08/30 06:42:38;;;;;;;9.30;5.50;;;;;;;30.70;35.49;99826.30;103146;1289;62001;-81
2023/08/30 06:45:04;;;;;;;9.00;5.90;;;;;;;30.71;35.60;99828.20;103237;1291;61327;-82
2023/08/30 06:47:30;;;;;;;10.30;6.20;;;;;;;30.72;35.57;99830.08;102839;1291;65773;-81
2023/08/30 06:49:55;;;;;;;13.10;5.90;;;;;;;30.73;35.57;99828.50;102962;1291;62214;-82
2023/08/30 06:52:21;;;;;;;8.80;5.30;;;;;;;30.72;35.60;99828.96;102908;1291;61354;-82
2023/08/30 06:54:47;;;;;;;10.20;5.90;;;;;;;30.74;35.49;99830.73;103022;1291;61381;-82
2023/08/30 06:57:13;;;;;;;13.00;6.00;;;;;;;30.74;35.49;99822.85;102755;1291;61988;-82
2023/08/30 06:59:38;;;;;;;10.90;5.90;;;;;;;30.75;35.57;99820.44;102971;1291;61425;-82
2023/08/30 07:02:04;;;;;;;11.20;5.70;;;;;;;30.75;35.57;99821.14;102893;1289;61495;-82
2023/08/30 07:04:29;;;;;;;9.70;5.70;;;;;;;30.76;35.58;99818.34;102993;1290;61389;-82
2023/08/30 07:06:55;;;;;;;10.60;5.80;;;;;;;30.76;35.48;99822.70;102843;1296;61973;-82
2023/08/30 07:09:22;;;;;;;8.30;5.20;;;;;;;30.76;35.51;99823.41;102964;1293;62262;-82
2023/08/30 07:11:47;;;;;;;12.60;5.80;;;;;;;30.77;35.66;99823.80;103041;1293;62862;-82
2023/08/30 07:14:14;;;;;;;9.50;5.70;;;;;;;30.77;35.70;99822.00;103058;1291;61326;-83
2023/08/30 07:16:40;;;;;;;10.70;5.60;;;;;;;30.77;35.62;99817.05;103178;1293;61421;-82
2023/08/30 07:19:06;;;;;;;9.30;5.50;;;;;;;30.78;35.63;99814.41;103186;1293;61305;-82
2023/08/30 07:21:35;;;;;;;11.00;5.50;;;;;;;30.79;35.63;99813.23;103197;1290;66125;-82
2023/08/30 07:24:02;;;;;;;12.40;6.10;;;;;;;30.79;35.64;99813.38;103379;1289;63138;-82
2023/08/30 07:26:27;;;;;;;10.10;6.10;;;;;;;30.80;35.69;99812.41;103359;1291;61227;-83
2023/08/30 07:28:53;;;;;;;10.30;5.40;;;;;;;30.81;35.60;99818.29;103301;1295;62474;-82
2023/08/30 07:31:19;;;;;;;9.70;5.70;;;;;;;30.82;35.71;99821.77;103513;1293;61426;-82
2023/08/30 07:33:45;;;;;;;9.90;5.90;;;;;;;30.82;35.69;99824.80;103333;1295;61395;-82
2023/08/30 07:36:11;;;;;;;11.90;6.30;;;;;;;30.83;35.72;99822.84;103107;1293;61465;-82
2023/08/30 07:38:37;;;;;;;9.30;5.70;;;;;;;30.84;35.79;99823.69;103900;1293;61174;-83
2023/08/30 07:41:03;;;;;;;10.00;5.60;;;;;;;30.85;35.79;99825.36;103008;1293;61671;-83
2023/08/30 07:43:28;;;;;;;10.00;5.80;;;;;;;30.86;35.71;99821.60;102966;1290;75933;-83
2023/08/30 07:45:54;;;;;;;10.80;5.60;;;;;;;30.86;35.72;99820.46;102963;1297;61404;-83
2023/08/30 07:48:20;;;;;;;10.70;6.00;;;;;;;30.86;35.81;99822.10;103362;1290;61802;-83
2023/08/30 07:50:45;;;;;;;8.60;5.50;;;;;;;30.86;35.81;99823.66;103299;1296;61273;-81
2023/08/30 07:53:12;;;;;;;10.20;6.00;;;;;;;30.87;35.76;99819.59;103094;1293;61443;-81
2023/08/30 07:55:38;;;;;;;9.70;5.70;;;;;;;30.88;35.70;99821.12;103003;1291;61289;-81
2023/08/30 07:58:03;;;;;;;10.40;5.60;;;;;;;30.89;35.64;99822.85;103000;1291;62333;-82
2023/08/30 08:00:31;;;;;;;9.60;5.60;;;;;;;30.89;35.75;99817.23;103023;1290;61451;-82
2023/08/30 08:02:57;;;;;;;12.70;6.00;;;;;;;30.89;35.67;99819.15;102870;1295;64657;-82
2023/08/30 08:05:23;;;;;;;8.60;5.90;;;;;;;30.89;35.72;99816.42;102906;1293;61390;-81
2023/08/30 08:07:51;;;;;;;11.60;5.90;;;;;;;30.89;35.78;99816.77;102893;1294;61431;-81
2023/08/30 08:10:17;;;;;;;13.10;6.80;;;;;;;30.89;35.80;99815.96;103041;1296;61408;-82
2023/08/30 08:12:43;;;;;;;9.40;6.30;;;;;;;30.89;35.75;99816.77;103481;1293;61401;-82
2023/08/30 08:15:09;;;;;;;10.00;5.70;;;;;;;30.88;35.87;99817.30;103745;1295;61390;-82
2023/08/30 08:17:35;;;;;;;8.70;5.80;;;;;;;30.89;35.93;99813.33;103821;1295;61437;-82
2023/08/30 08:20:00;;;;;;;13.50;6.90;;;;;;;30.89;35.84;99810.23;103542;1291;61373;-81
2023/08/30 08:22:26;;;;;;;9.00;6.10;;;;;;;30.90;35.97;99811.96;103017;1293;61294;-82
2023/08/30 08:24:53;;;;;;;11.80;6.20;;;;;;;30.90;35.99;99811.20;102935;1294;64037;-82
2023/08/30 08:27:19;;;;;;;11.30;6.40;;;;;;;30.90;36.09;99807.55;102827;1293;65755;-82
2023/08/30 08:29:44;;;;;;;10.40;6.20;;;;;;;30.90;36.09;99807.21;103195;1290;61447;-82
2023/08/30 08:32:10;;;;;;;12.10;6.30;;;;;;;30.90;36.01;99808.64;103219;1291;61858;-81
2023/08/30 08:34:36;;;;;;;12.50;6.40;;;;;;;30.90;36.08;99807.01;102850;1296;61387;-82
2023/08/30 08:37:01;;;;;;;13.80;5.90;;;;;;;30.90;36.14;99806.13;103080;1290;61338;-82
2023/08/30 08:39:27;;;;;;;11.60;6.40;;;;;;;30.90;36.06;99806.29;102836;1293;65905;-82
2023/08/30 08:41:53;;;;;;;12.10;6.80;;;;;;;30.91;36.04;99802.98;102869;1291;61343;-82
2023/08/30 08:44:19;;;;;;;9.90;6.00;;;;;;;30.91;36.07;99800.05;102836;1294;62584;-82
2023/08/30 08:46:45;;;;;;;10.10;5.80;;;;;;;30.91;35.93;99796.06;103027;1293;61316;-82
2023/08/30 08:49:15;;;;;;;9.40;5.80;;;;;;;30.91;36.07;99795.69;103087;1296;61421;-82
2023/08/30 08:51:42;;;;;;;8.90;5.70;;;;;;;30.91;36.02;99795.28;102918;1296;61236;-82
2023/08/30 08:54:09;;;;;;;10.10;5.90;;;;;;;30.91;36.03;99796.70;103090;1292;61433;-82
2023/08/30 08:56:35;;;;;;;11.00;6.00;;;;;;;30.92;36.04;99794.65;103112;1291;63877;-82
2023/08/30 08:59:01;;;;;;;7.60;5.50;;;;;;;30.92;35.89;99799.14;102895;1290;61469;-82
2023/08/30 09:01:26;;;;;;;9.30;6.00;;;;;;;30.92;35.84;99800.09;102942;1293;61400;-82
2023/08/30 09:03:52;;;;;;;13.00;6.00;;;;;;;30.92;35.90;99800.98;102913;1293;61403;-82
2023/08/30 09:06:18;;;;;;;9.10;5.70;;;;;;;30.92;35.93;99794.23;103018;1296;61517;-83
2023/08/30 09:08:44;;;;;;;9.10;6.30;;;;;;;30.93;35.91;99795.45;102969;1293;61371;-81
2023/08/30 09:11:09;;;;;;;12.10;6.40;;;;;;;30.93;35.87;99790.09;102911;1293;61344;-83
2023/08/30 09:13:35;;;;;;;9.90;6.30;;;;;;;30.94;35.89;99793.69;103371;1296;61417;-82
2023/08/30 09:16:02;;;;;;;11.10;6.20;;;;;;;30.93;36.00;99790.70;102848;1293;62262;-82
2023/08/30 09:18:28;;;;;;;10.30;5.90;;;;;;;30.92;35.90;99787.65;103011;1296;61416;-82
2023/08/30 09:21:14;;;;;;;9.70;6.10;;;;;;;30.93;35.70;99782.20;103016;1296;61463;-82
2023/08/30 09:23:40;;;;;;;9.30;6.30;;;;;;;30.92;35.73;99775.50;102819;1294;61358;-82
2023/08/30 09:26:05;;;;;;;8.70;6.10;;;;;;;30.93;35.73;99773.07;102811;1292;61402;-82
2023/08/30 09:28:34;;;;;;;9.00;6.20;;;;;;;30.94;35.78;99771.35;102986;1293;62425;-82
2023/08/30 09:31:00;;;;;;;9.70;6.20;;;;;;;30.93;35.67;99766.27;103233;1293;65681;-82
2023/08/30 09:33:31;;;;;;;8.80;5.80;;;;;;;30.94;35.68;99764.43;103325;1291;61331;-82
2023/08/30 09:35:57;;;;;;;11.00;6.40;;;;;;;30.94;35.59;99757.64;103237;1289;61913;-83
2023/08/30 09:38:23;;;;;;;9.70;6.00;;;;;;;30.94;35.70;99757.10;103188;1295;61520;-82
2023/08/30 09:40:49;;;;;;;12.00;6.40;;;;;;;30.95;35.66;99754.67;103040;1291;61389;-81
2023/08/30 09:43:18;;;;;;;9.20;5.60;;;;;;;30.95;35.69;99755.21;102897;1291;61412;-82
2023/08/30 09:45:44;;;;;;;13.60;6.00;;;;;;;30.95;35.67;99756.73;103071;1289;61293;-82
2023/08/30 09:48:09;;;;;;;13.70;6.40;;;;;;;30.94;35.55;99760.37;103032;1290;61417;-82
2023/08/30 09:50:35;;;;;;;9.60;6.20;;;;;;;30.94;35.63;99761.16;103039;1289;62360;-82
2023/08/30 09:53:09;;;;;;;11.10;6.10;;;;;;;30.93;35.68;99753.75;103224;1291;62404;-82
2023/08/30 09:55:35;;;;;;;9.70;5.90;;;;;;;30.94;35.71;99746.28;103032;1290;61277;-82
2023/08/30 09:58:04;;;;;;;8.30;6.00;;;;;;;30.94;35.55;99739.91;102992;1291;62683;-82
2023/08/30 10:00:31;;;;;;;10.30;6.30;;;;;;;30.93;35.64;99737.22;102865;1290;65858;-82
2023/08/30 10:02:58;;;;;;;8.50;5.90;;;;;;;30.93;35.58;99737.60;102904;1290;61383;-81
2023/08/30 10:05:23;;;;;;;9.90;5.70;;;;;;;30.94;35.61;99737.90;103269;1292;61363;-82
2023/08/30 10:07:49;;;;;;;10.40;6.20;;;;;;;30.94;35.64;99740.42;103022;1295;61424;-82
2023/08/30 10:10:14;;;;;;;10.80;6.60;;;;;;;30.94;35.64;99742.80;102985;1290;62416;-82
2023/08/30 10:12:40;;;;;;;9.80;5.80;;;;;;;30.95;35.78;99737.65;103077;1289;61384;-82
2023/08/30 10:15:06;;;;;;;7.70;5.70;;;;;;;30.95;35.67;99735.05;102948;1296;63324;-83
2023/08/30 10:17:34;;;;;;;10.90;6.30;;;;;;;30.95;35.71;99736.81;103039;1291;61391;-81
2023/08/30 10:20:01;;;;;;;9.60;6.30;;;;;;;30.95;35.61;99737.98;103024;1291;63687;-81
2023/08/30 10:22:27;;;;;;;9.50;6.10;;;;;;;30.95;35.63;99730.15;103366;1291;65846;-81
2023/08/30 10:25:04;;;;;;;8.90;6.20;;;;;;;30.95;35.57;99728.17;103583;1290;61398;-81
2023/08/30 10:27:31;;;;;;;9.70;5.90;;;;;;;30.94;35.66;99728.94;102971;1290;61306;-81
2023/08/30 10:29:57;;;;;;;10.40;6.30;;;;;;;30.95;35.66;99727.58;103334;1293;64038;-82
2023/08/30 10:32:23;;;;;;;9.90;6.00;;;;;;;30.96;35.63;99727.34;103463;1291;61434;-81
2023/08/30 10:34:49;;;;;;;10.70;6.30;;;;;;;30.96;35.73;99724.79;102956;1291;61437;-81
2023/08/30 10:37:15;;;;;;;8.10;6.30;;;;;;;30.96;35.72;99719.26;103037;1289;61391;-81
2023/08/30 10:39:41;;;;;;;9.40;6.00;;;;;;;30.96;35.68;99712.75;103275;1289;61769;-81
2023/08/30 10:42:08;;;;;;;8.00;5.70;;;;;;;30.97;35.61;99711.20;104453;1290;61378;-81
2023/08/30 10:44:33;;;;;;;7.60;5.70;;;;;;;30.97;35.58;99712.60;102943;1296;61841;-82
2023/08/30 10:46:59;;;;;;;7.50;5.80;;;;;;;30.97;35.62;99715.11;102922;1290;61330;-82
2023/08/30 10:49:25;;;;;;;7.90;5.90;;;;;;;30.97;35.81;99717.09;102814;1291;61403;-81
2023/08/30 10:51:57;;;;;;;8.00;5.90;;;;;;;30.98;35.64;99717.92;103134;1291;63755;-82
2023/08/30 10:54:23;;;;;;;9.30;5.70;;;;;;;30.98;35.59;99719.77;103601;1296;65887;-82
2023/08/30 10:56:56;;;;;;;10.30;5.70;;;;;;;30.98;35.67;99719.19;102883;1296;61432;-82
2023/08/30 10:59:23;;;;;;;7.80;5.90;;;;;;;30.98;35.69;99719.19;102879;1291;61457;-83
2023/08/30 11:01:50;;;;;;;7.30;5.70;;;;;;;30.99;35.67;99715.16;102912;1293;61421;-83
2023/08/30 11:04:17;;;;;;;8.20;6.00;;;;;;;30.98;35.59;99712.81;102837;1291;65658;-83
2023/08/30 11:06:44;;;;;;;8.50;5.30;;;;;;;30.98;35.65;99709.20;102766;1294;61415;-83
2023/08/30 11:09:10;;;;;;;9.00;6.00;;;;;;;30.98;35.65;99709.71;102801;1294;61370;-83
2023/08/30 11:11:37;;;;;;;10.80;6.20;;;;;;;30.99;35.69;99709.33;102760;1290;64892;-83
2023/08/30 11:14:07;;;;;;;7.70;5.60;;;;;;;30.99;35.66;99709.71;102740;1291;61403;-83
2023/08/30 11:16:34;;;;;;;10.70;6.20;;;;;;;30.98;35.80;99703.96;102690;1289;62194;-83
2023/08/30 11:19:03;;;;;;;8.30;6.10;;;;;;;30.98;35.82;99698.14;102876;1291;61392;-84